Meteorological Model Developer
| Date Time MST |
Temp °F |
RH % |
DewPt °F |
Wind mph |
Dir ° |
Gust mph |
Dir ° |
Press in Hg |
Solar W/m^2 |
Prec in |
|---|---|---|---|---|---|---|---|---|---|---|
| 2026-05-04 07:35 | 54.2 | 42.3 | 31.7 | 6.2 | 78 | 8.0 | 81 | 24.670 | 221.9 | 0.00 |
| 2026-05-04 07:30 | 55.1 | 41.7 | 32.3 | 4.5 | 83 | 6.6 | 83 | 24.671 | 239.5 | 0.00 |
| 2026-05-04 07:25 | 54.9 | 38.2 | 29.9 | 4.2 | 13 | 6.1 | 38 | 24.673 | 228.7 | 0.00 |
| 2026-05-04 07:20 | 54.6 | 36.8 | 28.7 | 4.8 | 36 | 7.6 | 18 | 24.674 | 211.6 | 0.00 |
| 2026-05-04 07:15 | 54.0 | 40.0 | 30.3 | 2.4 | 355 | 6.0 | 357 | 24.675 | 245.2 | 0.00 |
| 2026-05-04 07:10 | 53.1 | 42.3 | 30.8 | 5.1 | 17 | 6.8 | 16 | 24.675 | 224.8 | 0.00 |
| 2026-05-04 07:05 | 52.3 | 42.3 | 30.1 | 6.8 | 14 | 10.4 | 9 | 24.675 | 201.8 | 0.00 |
| 2026-05-04 07:00 | 52.6 | 46.9 | 32.9 | 5.6 | 12 | 8.8 | 9 | 24.678 | 206.4 | 0.00 |
| 2026-05-04 06:55 | 52.7 | 53.3 | 36.2 | 2.4 | 4 | 4.6 | 4 | 24.677 | 227.6 | 0.00 |
| 2026-05-04 06:50 | 51.9 | 51.0 | 34.4 | 0.9 | 6 | 2.7 | 350 | 24.678 | 180.9 | 0.00 |
| 2026-05-04 06:45 | 51.1 | 50.6 | 33.4 | 0.8 | 274 | 1.7 | 285 | 24.680 | 150.7 | 0.00 |
| 2026-05-04 06:40 | 50.5 | 54.0 | 34.4 | 0.6 | 91 | 2.6 | 70 | 24.681 | 133.0 | 0.00 |
| 2026-05-04 06:35 | 50.2 | 53.9 | 34.1 | 1.7 | 71 | 2.6 | 71 | 24.682 | 121.7 | 0.00 |
| 2026-05-04 06:30 | 49.3 | 53.0 | 32.9 | 0.9 | 72 | 2.4 | 78 | 24.681 | 124.3 | 0.00 |
| 2026-05-04 06:25 | 48.0 | 54.3 | 32.3 | 2.3 | 211 | 3.0 | 248 | 24.684 | 147.5 | 0.00 |
| 2026-05-04 06:20 | 47.0 | 60.4 | 34.1 | 1.4 | 215 | 2.3 | 220 | 24.679 | 133.8 | 0.00 |
| 2026-05-04 06:15 | 46.7 | 63.9 | 35.1 | 0.9 | 203 | 1.7 | 31 | 24.674 | 113.0 | 0.00 |
| 2026-05-04 06:10 | 46.5 | 59.0 | 32.9 | 0.5 | 264 | 2.0 | 246 | 24.674 | 97.5 | 0.00 |
| 2026-05-04 06:05 | 46.1 | 55.0 | 30.8 | 2.6 | 246 | 3.3 | 235 | 24.674 | 86.5 | 0.00 |
| 2026-05-04 06:00 | 45.3 | 55.2 | 30.2 | 2.8 | 220 | 3.7 | 225 | 24.674 | 94.5 | 0.00 |
| 2026-05-04 05:55 | 45.0 | 56.1 | 30.3 | 2.4 | 205 | 3.1 | 209 | 24.674 | 84.4 | 0.00 |
| 2026-05-04 05:50 | 44.0 | 52.6 | 27.8 | 0.2 | 201 | 2.0 | 201 | 24.674 | 58.8 | 0.00 |
| 2026-05-04 05:45 | 44.0 | 56.6 | 29.6 | 0.5 | 335 | 1.6 | 18 | 24.674 | 42.7 | 0.00 |
| 2026-05-04 05:40 | 45.4 | 54.9 | 30.1 | 0.7 | 31 | 1.5 | 31 | 24.672 | 34.8 | 0.00 |
| 2026-05-04 05:35 | 45.8 | 51.5 | 28.9 | 1.7 | 312 | 2.8 | 284 | 24.674 | 32.5 | 0.00 |
| 2026-05-04 05:30 | 45.0 | 51.9 | 28.4 | 0.9 | 275 | 1.6 | 312 | 24.674 | 31.5 | 0.00 |
| 2026-05-04 05:25 | 44.7 | 53.4 | 28.8 | 1.3 | 60 | 3.0 | 283 | 24.674 | 23.3 | 0.00 |
| 2026-05-04 05:20 | 44.4 | 53.9 | 28.7 | 1.2 | 273 | 2.0 | 274 | 24.674 | 21.2 | 0.00 |
| 2026-05-04 05:15 | 44.3 | 54.6 | 29.0 | 1.4 | 274 | 2.1 | 272 | 24.674 | 16.8 | 0.00 |
| 2026-05-04 05:10 | 44.4 | 54.8 | 29.2 | 2.3 | 261 | 3.5 | 240 | 24.674 | 11.8 | 0.00 |
| Date Time MST |
Temp °C |
RH % |
DewPt °C |
Wind m/s |
Dir ° |
Gust m/s |
Dir ° |
Press hPa |
Solar W/m^2 |
Prec mm |
|---|---|---|---|---|---|---|---|---|---|---|
| 2026-05-04 07:35 | 12.3 | 42.3 | -0.1 | 2.8 | 78 | 3.6 | 81 | 835.41 | 221.9 | 0.00 |
| 2026-05-04 07:30 | 12.8 | 41.7 | 0.1 | 2.0 | 83 | 3.0 | 83 | 835.44 | 239.5 | 0.00 |
| 2026-05-04 07:25 | 12.7 | 38.2 | -1.2 | 1.9 | 13 | 2.7 | 38 | 835.52 | 228.7 | 0.00 |
| 2026-05-04 07:20 | 12.5 | 36.8 | -1.8 | 2.2 | 36 | 3.4 | 18 | 835.56 | 211.6 | 0.00 |
| 2026-05-04 07:15 | 12.2 | 40.0 | -1.0 | 1.1 | 355 | 2.7 | 357 | 835.58 | 245.2 | 0.00 |
| 2026-05-04 07:10 | 11.7 | 42.3 | -0.7 | 2.3 | 17 | 3.0 | 16 | 835.58 | 224.8 | 0.00 |
| 2026-05-04 07:05 | 11.3 | 42.3 | -1.1 | 3.0 | 14 | 4.7 | 9 | 835.58 | 201.8 | 0.00 |
| 2026-05-04 07:00 | 11.4 | 46.9 | 0.5 | 2.5 | 12 | 3.9 | 9 | 835.69 | 206.4 | 0.00 |
| 2026-05-04 06:55 | 11.5 | 53.3 | 2.4 | 1.1 | 4 | 2.0 | 4 | 835.64 | 227.6 | 0.00 |
| 2026-05-04 06:50 | 11.1 | 51.0 | 1.3 | 0.4 | 6 | 1.2 | 350 | 835.69 | 180.9 | 0.00 |
| 2026-05-04 06:45 | 10.6 | 50.6 | 0.8 | 0.3 | 274 | 0.7 | 285 | 835.76 | 150.7 | 0.00 |
| 2026-05-04 06:40 | 10.3 | 54.0 | 1.4 | 0.3 | 91 | 1.2 | 70 | 835.79 | 133.0 | 0.00 |
| 2026-05-04 06:35 | 10.1 | 53.9 | 1.2 | 0.8 | 71 | 1.2 | 71 | 835.84 | 121.7 | 0.00 |
| 2026-05-04 06:30 | 9.6 | 53.0 | 0.5 | 0.4 | 72 | 1.1 | 78 | 835.80 | 124.3 | 0.00 |
| 2026-05-04 06:25 | 8.9 | 54.3 | 0.2 | 1.0 | 211 | 1.4 | 248 | 835.89 | 147.5 | 0.00 |
| 2026-05-04 06:20 | 8.4 | 60.4 | 1.1 | 0.6 | 215 | 1.0 | 220 | 835.71 | 133.8 | 0.00 |
| 2026-05-04 06:15 | 8.1 | 63.9 | 1.7 | 0.4 | 203 | 0.7 | 31 | 835.57 | 113.0 | 0.00 |
| 2026-05-04 06:10 | 8.0 | 59.0 | 0.5 | 0.2 | 264 | 0.9 | 246 | 835.55 | 97.5 | 0.00 |
| 2026-05-04 06:05 | 7.8 | 55.0 | -0.6 | 1.2 | 246 | 1.5 | 235 | 835.54 | 86.5 | 0.00 |
| 2026-05-04 06:00 | 7.4 | 55.2 | -1.0 | 1.3 | 220 | 1.6 | 225 | 835.54 | 94.5 | 0.00 |
| 2026-05-04 05:55 | 7.2 | 56.1 | -0.9 | 1.1 | 205 | 1.4 | 209 | 835.55 | 84.4 | 0.00 |
| 2026-05-04 05:50 | 6.7 | 52.6 | -2.3 | 0.1 | 201 | 0.9 | 201 | 835.55 | 58.8 | 0.00 |
| 2026-05-04 05:45 | 6.7 | 56.6 | -1.3 | 0.2 | 335 | 0.7 | 18 | 835.54 | 42.7 | 0.00 |
| 2026-05-04 05:40 | 7.4 | 54.9 | -1.1 | 0.3 | 31 | 0.7 | 31 | 835.48 | 34.8 | 0.00 |
| 2026-05-04 05:35 | 7.6 | 51.5 | -1.7 | 0.7 | 312 | 1.3 | 284 | 835.57 | 32.5 | 0.00 |
| 2026-05-04 05:30 | 7.2 | 51.9 | -2.0 | 0.4 | 275 | 0.7 | 312 | 835.55 | 31.5 | 0.00 |
| 2026-05-04 05:25 | 7.0 | 53.4 | -1.8 | 0.6 | 60 | 1.3 | 283 | 835.57 | 23.3 | 0.00 |
| 2026-05-04 05:20 | 6.9 | 53.9 | -1.8 | 0.5 | 273 | 0.9 | 274 | 835.55 | 21.2 | 0.00 |
| 2026-05-04 05:15 | 6.8 | 54.6 | -1.7 | 0.6 | 274 | 1.0 | 272 | 835.56 | 16.8 | 0.00 |
| 2026-05-04 05:10 | 6.9 | 54.8 | -1.6 | 1.0 | 261 | 1.6 | 240 | 835.56 | 11.8 | 0.00 |
Meteorological Model Developer
Cooperative Institute for Research in the Atmosphere
Colorado State University
1375 Campus Delivery
Fort Collins, CO 80523-1375